Lavalette, WV

03:01 PM EST del 24 novembre 2014 (GMT -0500)
Tri-State / Ferguson | Change Station
CLOSE
Current Station
Aeroporto
Location: Huntington,
Altitudine: 837 ft
Stazioni meteo nelle vicinanze
Avvisi attivi: Wind Advisory

Alt. 837 ft 38.37 °N, 82.56 °W | Updated 10 minutes ago

Parzialmente nuvoloso
Parzialmente nuvoloso
64 °F
Sembra 64 °F
N
17
Vento Variabile Vento da Ovest
Gusts 26 mph

Oggi
Massima -- | Minima -- °F
--% Possibilità di precip.
Ieri
Massima -- | Minima -- °F
Precip. -- in
7:20 AM 5:11 PM
Luna crescente, 7% visible
Pressione 29.61 in
Visibilità 10.0 miglia
Nuvole Nubi sparse 8500 ft
Punto di rugiada 46 °F
Umidità 52%
Piovosità 0.00 in
Spessore del manto nevoso Non disponibile.
Raggi UV 1 fuori da 12
Polline .10 fuori da 12
Qualità dell'aria Non disponibile.
Flu Activity Non disponibile.
METAR KHTS 241951Z 26015G23KT 10SM SCT085 18/08 A2962 RMK AO2 PK WND 23035/1852 PRESRR SLP025 T01780078

More Conditions Fewer Conditions

Pressione 29.61 in
Visibilità 10.0 miglia
Nuvole Nubi sparse 8500 ft
Punto di rugiada 46 °F
Umidità 52%
Piovosità 0.00 in
Spessore del manto nevoso Non disponibile.
Raggi UV 1 fuori da 12
Polline .10 fuori da 12
Qualità dell'aria Non disponibile.
Flu Activity Non disponibile.
METAR KHTS 241951Z 26015G23KT 10SM SCT085 18/08 A2962 RMK AO2 PK WND 23035/1852 PRESRR SLP025 T01780078

More Conditions Fewer Conditions

10-Day Weather Forecast

Almanac

Astronomia

Nov. 24, 2014 Alba Tramonto
Ora attuale
Crepuscolo civile
Crepuscolo nautico
Crepuscolo astronomico
Luna
Estensione della luce visibile
Lunghezza del giorno
Tomorrow will be .
, % of the Moon is Illuminated

Gli estremi di oggi

State Highs State Lows

Community

WunderPhotos

Upload Photos

1,773,401 foto caricate!

WunderBlogs® & News

Nearby

Qualità dell'aria

  Qualità dell'aria Indice AQ Inquinante
Not available.

Profondità neve

Stazione Profondità Altitudine

Attività sismica

Città  Distanza Mag. Data & Ora
Minimo Magnitudo Mostrato è 2.5.

Temperature delle acque costiere

Località Temperatura

Stazioni meteo nelle vicinanze